Time;durP1;ratioP1;P1;durP2;ratioP2;P2;SDS_P1;SDS_P2;PMS_P1;PMS_P2;Temp;Humidity;BMP_temperature;BMP_pressure;BME280_temperature;BME280_humidity;BME280_pressure;Samples;Min_cycle;Max_cycle;Signal;HPM_P1;HPM_P2
2022/12/03 00:01:14;;;;;;;31.63;20.90;;;;;;;;;;5074195;28;20204;-45
2022/12/03 00:03:40;;;;;;;30.73;20.20;;;;;;;;;;5074414;28;20429;-45
2022/12/03 00:06:07;;;;;;;29.17;19.77;;;;;;;;;;5074164;28;20433;-45
2022/12/03 00:08:34;;;;;;;29.63;19.47;;;;;;;;;;5074357;28;20549;-45
2022/12/03 00:11:00;;;;;;;29.00;19.33;;;;;;;;;;5074289;28;20460;-45
2022/12/03 00:13:26;;;;;;;29.10;17.90;;;;;;;;;;5073987;28;20481;-45
2022/12/03 00:15:52;;;;;;;31.07;20.83;;;;;;;;;;5074273;28;20206;-45
2022/12/03 00:18:18;;;;;;;27.00;19.03;;;;;;;;;;5073953;28;20448;-44
2022/12/03 00:20:44;;;;;;;30.10;19.80;;;;;;;;;;5074143;28;20203;-44
2022/12/03 00:23:10;;;;;;;27.73;19.77;;;;;;;;;;5058876;28;20251;-44
2022/12/03 00:25:37;;;;;;;27.53;18.90;;;;;;;;;;5053551;28;21075;-44
2022/12/03 00:28:04;;;;;;;29.23;19.57;;;;;;;;;;5054017;28;20449;-44
2022/12/03 00:30:30;;;;;;;28.77;18.70;;;;;;;;;;5054172;28;20462;-44
2022/12/03 00:32:56;;;;;;;28.50;18.03;;;;;;;;;;5053970;28;20488;-44
2022/12/03 00:35:22;;;;;;;24.90;17.13;;;;;;;;;;5053905;28;20442;-45
2022/12/03 00:37:48;;;;;;;27.00;17.87;;;;;;;;;;5053738;28;20934;-45
2022/12/03 00:40:14;;;;;;;27.90;19.50;;;;;;;;;;5053827;28;21286;-45
2022/12/03 00:42:41;;;;;;;28.43;18.73;;;;;;;;;;5053938;28;20442;-45
2022/12/03 00:45:08;;;;;;;29.17;17.90;;;;;;;;;;5053823;28;20840;-45
2022/12/03 00:47:34;;;;;;;29.40;18.17;;;;;;;;;;5053684;28;20435;-45
2022/12/03 00:50:00;;;;;;;26.43;17.17;;;;;;;;;;5053070;28;20439;-45
2022/12/03 00:52:26;;;;;;;31.60;18.67;;;;;;;;;;5053647;28;20192;-45
2022/12/03 00:54:52;;;;;;;30.77;18.63;;;;;;;;;;5053405;28;20960;-43
2022/12/03 00:57:18;;;;;;;27.87;17.87;;;;;;;;;;5051584;28;20431;-45
2022/12/03 00:59:45;;;;;;;32.60;18.20;;;;;;;;;;5051895;28;20192;-45
2022/12/03 01:02:11;;;;;;;32.27;19.80;;;;;;;;;;5052203;28;20815;-46
2022/12/03 01:04:37;;;;;;;35.33;20.23;;;;;;;;;;5053263;28;20524;-44
2022/12/03 01:07:03;;;;;;;32.03;20.23;;;;;;;;;;5053093;28;20906;-44
2022/12/03 01:09:30;;;;;;;30.03;18.93;;;;;;;;;;5053137;28;20492;-44
2022/12/03 01:11:56;;;;;;;34.20;20.70;;;;;;;;;;5052947;28;20481;-44
2022/12/03 01:14:22;;;;;;;31.63;19.87;;;;;;;;;;5053067;28;20439;-44
2022/12/03 01:16:49;;;;;;;33.63;19.87;;;;;;;;;;5052948;28;20504;-44
2022/12/03 01:19:16;;;;;;;37.13;20.73;;;;;;;;;;5052821;28;20509;-44
2022/12/03 01:21:42;;;;;;;31.90;17.60;;;;;;;;;;5052828;28;20431;-44
2022/12/03 01:24:08;;;;;;;33.57;20.90;;;;;;;;;;5052686;28;20610;-44
2022/12/03 01:26:34;;;;;;;35.87;21.60;;;;;;;;;;5052913;28;20477;-44
2022/12/03 01:29:00;;;;;;;37.57;22.00;;;;;;;;;;5052713;28;20756;-44
2022/12/03 01:34:13;;;;;;;34.13;20.37;;;;;;;;;;5052596;28;20421;-44
2022/12/03 01:36:39;;;;;;;39.87;22.93;;;;;;;;;;5052546;28;20546;-44
2022/12/03 01:39:05;;;;;;;41.23;21.47;;;;;;;;;;5052527;28;20435;-44
2022/12/03 01:41:32;;;;;;;42.13;22.33;;;;;;;;;;5052495;28;20447;-44
2022/12/03 01:43:58;;;;;;;41.07;23.17;;;;;;;;;;5052245;28;20473;-44
2022/12/03 01:46:26;;;;;;;42.10;23.33;;;;;;;;;;5052568;28;20438;-44
2022/12/03 01:48:54;;;;;;;42.90;23.13;;;;;;;;;;5052398;28;20490;-44
2022/12/03 01:51:21;;;;;;;39.30;23.57;;;;;;;;;;5052173;28;21108;-45
2022/12/03 01:53:48;;;;;;;36.47;21.70;;;;;;;;;;5052358;28;20450;-45
2022/12/03 01:56:14;;;;;;;38.43;22.17;;;;;;;;;;5052209;28;20431;-45
2022/12/03 01:58:41;;;;;;;35.10;22.37;;;;;;;;;;5052198;28;20462;-45
2022/12/03 02:01:11;;;;;;;41.83;23.10;;;;;;;;;;5052175;28;20928;-44
2022/12/03 02:03:37;;;;;;;42.63;24.23;;;;;;;;;;5052298;28;20719;-45
2022/12/03 02:06:04;;;;;;;39.90;22.97;;;;;;;;;;5051842;28;20524;-45
2022/12/03 02:08:32;;;;;;;39.17;23.57;;;;;;;;;;5051997;28;20489;-45
2022/12/03 02:11:00;;;;;;;42.03;22.67;;;;;;;;;;5052199;28;20443;-44
2022/12/03 02:13:26;;;;;;;36.87;22.40;;;;;;;;;;5051717;28;20781;-44
2022/12/03 02:15:52;;;;;;;40.37;24.00;;;;;;;;;;5051871;28;20435;-44
2022/12/03 02:18:18;;;;;;;40.97;24.57;;;;;;;;;;5051795;28;20476;-45
2022/12/03 02:20:46;;;;;;;40.20;24.70;;;;;;;;;;5051815;28;20431;-44
2022/12/03 02:23:15;;;;;;;40.23;24.00;;;;;;;;;;5051949;28;20500;-44
2022/12/03 02:25:42;;;;;;;41.07;23.73;;;;;;;;;;5051839;28;20482;-44
2022/12/03 02:28:09;;;;;;;40.73;24.17;;;;;;;;;;5051806;28;20714;-44
2022/12/03 02:30:35;;;;;;;42.37;25.07;;;;;;;;;;5051947;28;20434;-44
2022/12/03 02:33:01;;;;;;;39.43;23.30;;;;;;;;;;5051730;28;20879;-44
2022/12/03 02:35:29;;;;;;;39.47;24.43;;;;;;;;;;5051884;28;20434;-44
2022/12/03 02:37:58;;;;;;;41.27;23.70;;;;;;;;;;5051548;28;20435;-45
2022/12/03 02:40:25;;;;;;;43.57;24.20;;;;;;;;;;5051766;28;20447;-44
2022/12/03 02:42:55;;;;;;;39.50;21.77;;;;;;;;;;5051674;28;20439;-44
2022/12/03 02:45:22;;;;;;;39.87;23.87;;;;;;;;;;5051479;28;20487;-44
2022/12/03 02:47:50;;;;;;;36.67;22.70;;;;;;;;;;5051598;28;20447;-45
2022/12/03 02:50:17;;;;;;;39.93;23.63;;;;;;;;;;5051164;28;20518;-45
2022/12/03 02:52:45;;;;;;;34.03;22.43;;;;;;;;;;5051547;28;20449;-45
2022/12/03 02:55:11;;;;;;;37.77;22.63;;;;;;;;;;5051464;28;20458;-45
2022/12/03 02:57:38;;;;;;;36.90;22.27;;;;;;;;;;5051671;28;20446;-45
2022/12/03 03:00:06;;;;;;;39.50;23.63;;;;;;;;;;5051388;28;20881;-44
2022/12/03 03:02:33;;;;;;;38.83;24.67;;;;;;;;;;5051447;28;20433;-44
2022/12/03 03:04:59;;;;;;;35.87;22.60;;;;;;;;;;5051163;28;21162;-45
2022/12/03 03:07:25;;;;;;;40.43;24.50;;;;;;;;;;5051260;28;20937;-44
2022/12/03 03:09:51;;;;;;;38.47;22.43;;;;;;;;;;5051190;28;20867;-45
2022/12/03 03:12:17;;;;;;;35.80;22.00;;;;;;;;;;5051277;28;20525;-44
2022/12/03 03:14:44;;;;;;;37.50;22.83;;;;;;;;;;5051509;28;20442;-45
2022/12/03 03:17:11;;;;;;;43.23;24.33;;;;;;;;;;5051158;28;20474;-45
2022/12/03 03:19:37;;;;;;;39.30;23.67;;;;;;;;;;5051174;28;20925;-44
2022/12/03 03:22:03;;;;;;;39.93;23.10;;;;;;;;;;5051194;28;20925;-44
2022/12/03 03:24:29;;;;;;;44.17;24.77;;;;;;;;;;5052257;28;20505;-44
2022/12/03 03:26:55;;;;;;;41.37;24.47;;;;;;;;;;5055006;28;20517;-44
2022/12/03 03:29:21;;;;;;;40.67;23.87;;;;;;;;;;5055186;28;20457;-44
2022/12/03 03:31:47;;;;;;;39.10;22.53;;;;;;;;;;5054996;28;20500;-44
2022/12/03 03:34:15;;;;;;;38.27;23.27;;;;;;;;;;5054911;28;20863;-45
2022/12/03 03:36:41;;;;;;;41.37;24.17;;;;;;;;;;5054893;28;20437;-45
2022/12/03 03:39:08;;;;;;;43.67;24.23;;;;;;;;;;5054707;28;20446;-45
2022/12/03 03:41:35;;;;;;;42.00;23.47;;;;;;;;;;5054846;28;21000;-44
2022/12/03 03:44:02;;;;;;;37.83;22.73;;;;;;;;;;5054698;28;20493;-44
2022/12/03 03:46:29;;;;;;;39.60;23.63;;;;;;;;;;5054725;28;20924;-45
2022/12/03 03:48:55;;;;;;;41.07;23.50;;;;;;;;;;5054585;28;20439;-45
2022/12/03 03:51:22;;;;;;;35.57;21.03;;;;;;;;;;5054371;28;20543;-44
2022/12/03 03:53:49;;;;;;;37.33;21.83;;;;;;;;;;5054408;28;20901;-45
2022/12/03 03:56:16;;;;;;;37.60;22.60;;;;;;;;;;5054370;28;20522;-45
2022/12/03 03:58:42;;;;;;;35.63;22.63;;;;;;;;;;5054363;28;20887;-45
2022/12/03 04:01:09;;;;;;;35.43;20.73;;;;;;;;;;5054428;28;20474;-45
2022/12/03 04:03:35;;;;;;;37.43;22.87;;;;;;;;;;5054466;28;20443;-45
2022/12/03 04:06:01;;;;;;;35.73;21.97;;;;;;;;;;5054066;28;20830;-45
2022/12/03 04:08:28;;;;;;;32.63;21.57;;;;;;;;;;5054262;28;20458;-44
2022/12/03 04:13:39;;;;;;;33.80;21.73;;;;;;;;;;5054293;28;20938;-45
2022/12/03 04:16:05;;;;;;;34.03;21.43;;;;;;;;;;5053940;28;20469;-46
2022/12/03 04:18:43;;;;;;;37.23;22.67;;;;;;;;;;5054189;28;20467;-46
2022/12/03 04:23:56;;;;;;;36.57;23.67;;;;;;;;;;5054064;28;20449;-45
2022/12/03 04:29:07;;;;;;;38.07;23.30;;;;;;;;;;5053990;28;20426;-45
2022/12/03 04:37:03;;;;;;;38.33;24.17;;;;;;;;;;5053603;28;20560;-46
2022/12/03 04:39:30;;;;;;;41.00;24.53;;;;;;;;;;5053686;28;20567;-46
2022/12/03 04:41:56;;;;;;;40.70;24.43;;;;;;;;;;5053714;28;20447;-45
2022/12/03 04:44:38;;;;;;;39.80;24.83;;;;;;;;;;5053511;28;20520;-45
2022/12/03 04:47:05;;;;;;;39.97;24.30;;;;;;;;;;5053525;28;20254;-45
2022/12/03 04:49:31;;;;;;;37.50;22.87;;;;;;;;;;5053548;28;20438;-45
2022/12/03 04:51:58;;;;;;;37.77;23.10;;;;;;;;;;5053325;28;21016;-45
2022/12/03 04:54:24;;;;;;;41.77;23.40;;;;;;;;;;5053454;28;20470;-45
2022/12/03 04:56:51;;;;;;;41.60;23.67;;;;;;;;;;5053459;28;20435;-46
2022/12/03 04:59:17;;;;;;;37.37;23.40;;;;;;;;;;5053284;28;20863;-46
2022/12/03 05:01:43;;;;;;;36.23;21.50;;;;;;;;;;5053237;28;20944;-45
2022/12/03 05:04:09;;;;;;;36.53;23.93;;;;;;;;;;5053104;28;20526;-45
2022/12/03 05:06:35;;;;;;;42.77;25.07;;;;;;;;;;5053306;28;20851;-46
2022/12/03 05:09:01;;;;;;;40.87;23.93;;;;;;;;;;5053017;28;20998;-45
2022/12/03 05:11:27;;;;;;;39.80;24.10;;;;;;;;;;5053306;28;20427;-45
2022/12/03 05:13:55;;;;;;;34.93;23.00;;;;;;;;;;5053117;28;20431;-45
2022/12/03 05:16:21;;;;;;;39.73;24.40;;;;;;;;;;5052823;28;20470;-45
2022/12/03 05:18:47;;;;;;;31.20;20.73;;;;;;;;;;5053119;28;20435;-45
2022/12/03 05:21:13;;;;;;;36.27;23.27;;;;;;;;;;5052891;28;20449;-45
2022/12/03 05:23:39;;;;;;;41.20;24.63;;;;;;;;;;5053013;28;20475;-44
2022/12/03 05:26:05;;;;;;;40.03;24.53;;;;;;;;;;5052727;28;20616;-45
2022/12/03 05:28:31;;;;;;;41.10;25.30;;;;;;;;;;5052997;28;20434;-45
2022/12/03 05:30:59;;;;;;;35.80;23.33;;;;;;;;;;5052795;28;21007;-45
2022/12/03 05:33:25;;;;;;;38.90;24.60;;;;;;;;;;5052547;28;20706;-45
2022/12/03 05:35:51;;;;;;;36.73;23.87;;;;;;;;;;5052512;28;20435;-45
2022/12/03 05:38:17;;;;;;;37.93;23.20;;;;;;;;;;5052502;28;20430;-45
2022/12/03 05:40:43;;;;;;;41.50;25.27;;;;;;;;;;5052624;28;20427;-45
2022/12/03 05:43:09;;;;;;;35.60;23.03;;;;;;;;;;5052377;28;20568;-45
2022/12/03 05:45:35;;;;;;;37.67;24.50;;;;;;;;;;5052436;28;20487;-45
2022/12/03 05:48:03;;;;;;;39.40;24.37;;;;;;;;;;5052016;28;20829;-45
2022/12/03 05:50:30;;;;;;;38.17;23.97;;;;;;;;;;5052139;28;20482;-45
2022/12/03 05:52:57;;;;;;;35.73;23.63;;;;;;;;;;5052385;28;20442;-45
2022/12/03 05:55:23;;;;;;;38.20;23.37;;;;;;;;;;5052252;28;20929;-45
2022/12/03 05:57:49;;;;;;;37.47;23.57;;;;;;;;;;5052376;28;20537;-45
2022/12/03 06:00:16;;;;;;;34.37;22.43;;;;;;;;;;5052056;28;20517;-45
2022/12/03 06:02:43;;;;;;;35.00;22.43;;;;;;;;;;5052129;28;20542;-45
2022/12/03 06:05:11;;;;;;;35.13;22.27;;;;;;;;;;5051753;28;20518;-45
2022/12/03 06:07:37;;;;;;;36.53;22.13;;;;;;;;;;5052031;28;20500;-45
2022/12/03 06:10:03;;;;;;;36.20;22.43;;;;;;;;;;5051911;28;20851;-45
2022/12/03 06:12:29;;;;;;;33.00;22.10;;;;;;;;;;5052118;28;20435;-45
2022/12/03 06:14:55;;;;;;;36.10;22.80;;;;;;;;;;5051969;28;20435;-43
2022/12/03 06:17:21;;;;;;;36.67;22.67;;;;;;;;;;5051830;28;20517;-43
2022/12/03 06:19:47;;;;;;;34.17;21.63;;;;;;;;;;5051947;28;20881;-43
2022/12/03 06:22:15;;;;;;;33.27;22.07;;;;;;;;;;5051872;28;20470;-43
2022/12/03 06:24:41;;;;;;;35.57;21.23;;;;;;;;;;5051658;28;20514;-43
2022/12/03 06:27:07;;;;;;;33.47;21.83;;;;;;;;;;5051666;28;20639;-43
2022/12/03 06:29:33;;;;;;;40.27;23.10;;;;;;;;;;5051791;28;20427;-43
2022/12/03 06:31:59;;;;;;;37.77;22.23;;;;;;;;;;5051679;28;20430;-43
2022/12/03 06:34:25;;;;;;;32.37;21.30;;;;;;;;;;5051770;28;20431;-43
2022/12/03 06:36:51;;;;;;;37.77;22.47;;;;;;;;;;5051530;28;20514;-43
2022/12/03 06:39:18;;;;;;;38.83;23.33;;;;;;;;;;5051704;28;20439;-43
2022/12/03 06:41:44;;;;;;;37.07;20.97;;;;;;;;;;5051532;28;20929;-43
2022/12/03 06:44:10;;;;;;;35.53;22.60;;;;;;;;;;5051443;28;20492;-43
2022/12/03 06:46:36;;;;;;;34.30;22.33;;;;;;;;;;5051539;28;20474;-43
2022/12/03 06:49:03;;;;;;;37.33;23.17;;;;;;;;;;5051531;28;20439;-43
2022/12/03 06:51:29;;;;;;;36.87;22.47;;;;;;;;;;5051665;28;20548;-43
2022/12/03 06:53:55;;;;;;;38.80;24.30;;;;;;;;;;5051744;28;20796;-43
2022/12/03 06:56:22;;;;;;;37.67;23.33;;;;;;;;;;5051711;28;20983;-43
2022/12/03 06:58:48;;;;;;;41.10;23.03;;;;;;;;;;5051614;28;20478;-42
2022/12/03 07:01:14;;;;;;;35.60;22.13;;;;;;;;;;5055403;28;20485;-42
2022/12/03 07:03:40;;;;;;;38.50;22.83;;;;;;;;;;5055614;28;20458;-43
2022/12/03 07:06:06;;;;;;;40.30;22.87;;;;;;;;;;5055434;28;20506;-43
2022/12/03 07:08:32;;;;;;;36.17;21.30;;;;;;;;;;5055776;28;20455;-43
2022/12/03 07:10:58;;;;;;;40.97;22.07;;;;;;;;;;5055381;28;20435;-43
2022/12/03 07:13:26;;;;;;;35.23;22.17;;;;;;;;;;5055180;28;20769;-43
2022/12/03 07:15:52;;;;;;;36.70;23.13;;;;;;;;;;5055171;28;21011;-43
2022/12/03 07:18:18;;;;;;;33.47;21.70;;;;;;;;;;5055155;28;20465;-43
2022/12/03 07:20:44;;;;;;;34.20;21.70;;;;;;;;;;5055342;28;20458;-43
2022/12/03 07:23:10;;;;;;;34.67;21.17;;;;;;;;;;5055048;28;20887;-45
2022/12/03 07:25:36;;;;;;;33.43;21.13;;;;;;;;;;5055271;28;20482;-42
2022/12/03 07:28:02;;;;;;;33.87;21.67;;;;;;;;;;5055193;28;20196;-42
2022/12/03 07:30:29;;;;;;;35.87;21.87;;;;;;;;;;5054997;28;20514;-43
2022/12/03 07:32:55;;;;;;;37.57;23.13;;;;;;;;;;5054945;28;20431;-43
2022/12/03 07:35:21;;;;;;;37.50;22.93;;;;;;;;;;5054833;28;20450;-42
2022/12/03 07:37:47;;;;;;;33.60;21.80;;;;;;;;;;5054969;28;20432;-43
2022/12/03 07:40:13;;;;;;;38.80;24.23;;;;;;;;;;5054789;28;20196;-43
2022/12/03 07:42:39;;;;;;;35.97;22.53;;;;;;;;;;5055081;28;20476;-44
2022/12/03 07:45:06;;;;;;;36.27;22.70;;;;;;;;;;5054675;28;20474;-44
2022/12/03 07:47:33;;;;;;;38.97;23.43;;;;;;;;;;5052528;28;20204;-42
2022/12/03 07:49:59;;;;;;;37.73;22.50;;;;;;;;;;5072779;28;20441;-42
2022/12/03 07:52:25;;;;;;;34.93;21.40;;;;;;;;;;5074774;28;20521;-43
2022/12/03 07:54:51;;;;;;;36.23;22.83;;;;;;;;;;5070677;28;20424;-42
2022/12/03 07:57:17;;;;;;;41.30;24.10;;;;;;;;;;5074496;28;20429;-43
2022/12/03 07:59:43;;;;;;;41.33;23.43;;;;;;;;;;5074748;28;20439;-43
2022/12/03 08:02:09;;;;;;;37.73;23.23;;;;;;;;;;5074310;28;20810;-44
2022/12/03 08:04:37;;;;;;;33.27;22.17;;;;;;;;;;5074369;28;20203;-43
2022/12/03 08:07:03;;;;;;;38.87;23.27;;;;;;;;;;5074482;28;20537;-43
2022/12/03 08:09:30;;;;;;;38.13;22.63;;;;;;;;;;5072457;28;20549;-44
2022/12/03 08:11:58;;;;;;;33.07;21.63;;;;;;;;;;5073668;28;20499;-44
2022/12/03 08:14:24;;;;;;;37.87;22.47;;;;;;;;;;5072031;28;20441;-43
2022/12/03 08:16:50;;;;;;;38.27;22.47;;;;;;;;;;5073974;28;20421;-43
2022/12/03 08:19:17;;;;;;;36.77;22.87;;;;;;;;;;5073829;28;20434;-44
2022/12/03 08:21:44;;;;;;;34.23;21.93;;;;;;;;;;5073821;28;20434;-43
2022/12/03 08:24:13;;;;;;;38.83;23.63;;;;;;;;;;5073852;28;20524;-43
2022/12/03 08:26:39;;;;;;;32.97;22.03;;;;;;;;;;5073821;28;20873;-43
2022/12/03 08:29:08;;;;;;;32.43;21.67;;;;;;;;;;5073620;28;20912;-43
2022/12/03 08:31:34;;;;;;;34.23;21.90;;;;;;;;;;5073939;28;20430;-44
2022/12/03 08:34:13;;;;;;;33.27;20.87;;;;;;;;;;5073508;28;20433;-42
2022/12/03 08:36:39;;;;;;;31.37;20.27;;;;;;;;;;5073653;28;20442;-44
2022/12/03 08:39:22;;;;;;;30.97;19.90;;;;;;;;;;5073393;28;20434;-43
2022/12/03 08:44:39;;;;;;;38.20;22.07;;;;;;;;;;5073550;28;20417;-44
2022/12/03 08:47:11;;;;;;;35.10;20.87;;;;;;;;;;5073382;28;20434;-44
2022/12/03 08:49:38;;;;;;;29.37;19.43;;;;;;;;;;5073335;28;20453;-43
2022/12/03 08:52:10;;;;;;;32.70;21.77;;;;;;;;;;5072979;28;20465;-43
2022/12/03 08:54:37;;;;;;;31.80;22.07;;;;;;;;;;5073093;28;20457;-44
2022/12/03 08:57:06;;;;;;;31.63;20.53;;;;;;;;;;5073201;28;20537;-43
2022/12/03 08:59:32;;;;;;;31.13;20.00;;;;;;;;;;5073390;28;20450;-43
2022/12/03 09:01:58;;;;;;;31.13;20.57;;;;;;;;;;5073067;28;20429;-43
2022/12/03 09:04:26;;;;;;;33.53;20.50;;;;;;;;;;5072976;28;20853;-43
2022/12/03 09:06:53;;;;;;;33.43;21.93;;;;;;;;;;5073001;28;20986;-44
2022/12/03 09:09:22;;;;;;;34.40;21.07;;;;;;;;;;5072726;28;20491;-44
2022/12/03 09:11:49;;;;;;;34.93;22.27;;;;;;;;;;5073092;28;20434;-43
2022/12/03 09:14:16;;;;;;;31.07;20.07;;;;;;;;;;5072802;28;20438;-43
2022/12/03 09:16:42;;;;;;;35.73;21.53;;;;;;;;;;5072712;28;20521;-44
2022/12/03 09:19:08;;;;;;;32.70;22.20;;;;;;;;;;5072619;28;20434;-43
2022/12/03 09:21:34;;;;;;;32.33;22.07;;;;;;;;;;5072078;28;20876;-43
2022/12/03 09:24:01;;;;;;;37.90;22.70;;;;;;;;;;5072430;28;20426;-44
2022/12/03 09:26:27;;;;;;;28.77;19.73;;;;;;;;;;5072314;28;20839;-42
2022/12/03 09:28:54;;;;;;;32.57;21.40;;;;;;;;;;5072397;28;20432;-43
2022/12/03 09:31:20;;;;;;;31.47;21.33;;;;;;;;;;5072351;28;20446;-44
2022/12/03 09:33:46;;;;;;;35.87;22.70;;;;;;;;;;5072242;28;20928;-43
2022/12/03 09:36:12;;;;;;;32.83;21.63;;;;;;;;;;5072279;28;20444;-43
2022/12/03 09:38:38;;;;;;;33.97;22.40;;;;;;;;;;5072673;28;20432;-43
2022/12/03 09:41:04;;;;;;;37.83;23.77;;;;;;;;;;5072166;28;20434;-43
2022/12/03 09:43:32;;;;;;;35.37;22.57;;;;;;;;;;5072329;28;20430;-43
2022/12/03 09:45:59;;;;;;;36.10;23.43;;;;;;;;;;5072295;28;20560;-43
2022/12/03 09:48:26;;;;;;;36.60;22.47;;;;;;;;;;5071778;28;20434;-44
2022/12/03 09:50:52;;;;;;;37.27;24.23;;;;;;;;;;5072071;28;20481;-44
2022/12/03 09:53:19;;;;;;;37.57;23.30;;;;;;;;;;5072234;28;20430;-44
2022/12/03 09:55:46;;;;;;;38.50;24.90;;;;;;;;;;5071994;28;20434;-44
2022/12/03 09:58:14;;;;;;;34.80;23.13;;;;;;;;;;5071981;28;20444;-44
2022/12/03 10:00:41;;;;;;;38.07;24.47;;;;;;;;;;5071879;28;20524;-44
2022/12/03 10:03:10;;;;;;;37.17;24.57;;;;;;;;;;5071612;28;20984;-44
2022/12/03 10:05:37;;;;;;;36.30;22.70;;;;;;;;;;5071886;28;20967;-44
2022/12/03 10:08:04;;;;;;;36.50;23.37;;;;;;;;;;5071705;28;21032;-43
2022/12/03 10:10:30;;;;;;;39.57;23.70;;;;;;;;;;5071858;28;20449;-44
2022/12/03 10:12:59;;;;;;;35.40;24.30;;;;;;;;;;5071914;28;20445;-45
2022/12/03 10:15:25;;;;;;;35.23;21.97;;;;;;;;;;5071558;28;20464;-44
2022/12/03 10:17:53;;;;;;;35.73;22.73;;;;;;;;;;5071699;28;20430;-44
2022/12/03 10:20:21;;;;;;;34.20;22.47;;;;;;;;;;5071692;28;20557;-44
2022/12/03 10:22:48;;;;;;;36.10;23.40;;;;;;;;;;5071716;28;20438;-43
2022/12/03 10:25:15;;;;;;;36.90;23.80;;;;;;;;;;5071488;28;20473;-44
2022/12/03 10:27:41;;;;;;;36.90;23.53;;;;;;;;;;5071773;28;20791;-43
2022/12/03 10:30:14;;;;;;;33.73;20.93;;;;;;;;;;5071491;28;20525;-43
2022/12/03 10:32:41;;;;;;;35.37;22.83;;;;;;;;;;5071801;28;20775;-43
2022/12/03 10:35:09;;;;;;;35.57;23.30;;;;;;;;;;5071326;28;20452;-43
2022/12/03 10:37:53;;;;;;;38.40;24.17;;;;;;;;;;5071656;28;20434;-43
2022/12/03 10:40:23;;;;;;;34.47;22.13;;;;;;;;;;5071365;28;20442;-44
2022/12/03 10:42:49;;;;;;;31.93;22.30;;;;;;;;;;5071460;28;20422;-43
2022/12/03 10:45:17;;;;;;;35.53;23.77;;;;;;;;;;5071381;28;20917;-44
2022/12/03 10:47:43;;;;;;;33.33;21.73;;;;;;;;;;5071358;28;20952;-42
2022/12/03 10:50:15;;;;;;;34.00;21.83;;;;;;;;;;5071167;28;20559;-44
2022/12/03 10:52:43;;;;;;;29.90;21.10;;;;;;;;;;5071568;28;20464;-44
2022/12/03 10:55:09;;;;;;;34.30;21.90;;;;;;;;;;5071392;28;20438;-43
2022/12/03 10:57:35;;;;;;;32.17;21.13;;;;;;;;;;5071364;28;20438;-44
2022/12/03 11:00:02;;;;;;;30.33;21.20;;;;;;;;;;5071337;28;20481;-44
2022/12/03 11:02:28;;;;;;;38.67;22.53;;;;;;;;;;5071164;28;20465;-44
2022/12/03 11:04:54;;;;;;;31.90;21.47;;;;;;;;;;5071240;28;20438;-43
2022/12/03 11:07:21;;;;;;;37.30;22.57;;;;;;;;;;5071320;28;20483;-43
2022/12/03 11:09:50;;;;;;;37.67;23.10;;;;;;;;;;5071043;28;20873;-43
2022/12/03 11:12:17;;;;;;;35.17;22.27;;;;;;;;;;5071152;28;20434;-43
2022/12/03 11:15:05;;;;;;;34.13;21.17;;;;;;;;;;5071442;28;20446;-43
2022/12/03 11:17:55;;;;;;;30.27;20.83;;;;;;;;;;5071158;28;20560;-43
2022/12/03 11:20:39;;;;;;;32.87;21.30;;;;;;;;;;5055950;28;20441;-46
2022/12/03 11:23:09;;;;;;;31.60;21.43;;;;;;;;;;5071219;28;20422;-43
2022/12/03 11:25:49;;;;;;;32.00;21.07;;;;;;;;;;5071347;28;20534;-43
2022/12/03 11:28:36;;;;;;;31.37;21.40;;;;;;;;;;5071293;28;20438;-44
2022/12/03 11:31:07;;;;;;;32.03;20.60;;;;;;;;;;5066118;28;20539;-44
2022/12/03 11:33:34;;;;;;;33.83;21.37;;;;;;;;;;5071045;28;20445;-44
2022/12/03 11:36:11;;;;;;;31.50;21.17;;;;;;;;;;5071525;28;20461;-44
2022/12/03 11:38:46;;;;;;;35.37;21.03;;;;;;;;;;5071018;28;20940;-44
2022/12/03 11:41:15;;;;;;;30.53;20.93;;;;;;;;;;5070908;28;20483;-42
2022/12/03 11:43:57;;;;;;;32.73;21.00;;;;;;;;;;5070890;28;20924;-42
2022/12/03 11:46:24;;;;;;;33.23;20.63;;;;;;;;;;5072890;28;20485;-43
2022/12/03 11:48:51;;;;;;;30.47;19.43;;;;;;;;;;5074202;28;20441;-49
2022/12/03 11:51:19;;;;;;;32.93;21.53;;;;;;;;;;5074389;28;20538;-44
2022/12/03 11:53:45;;;;;;;32.07;20.23;;;;;;;;;;5074438;28;20500;-43
2022/12/03 11:56:17;;;;;;;32.40;20.90;;;;;;;;;;5074253;28;20441;-44
2022/12/03 11:58:44;;;;;;;33.23;21.70;;;;;;;;;;5074422;28;20438;-43
2022/12/03 12:01:10;;;;;;;32.40;22.77;;;;;;;;;;5074302;28;20466;-45
2022/12/03 12:03:43;;;;;;;33.10;22.07;;;;;;;;;;5074192;28;20446;-43
2022/12/03 12:06:10;;;;;;;34.97;23.17;;;;;;;;;;5074105;28;21209;-43
2022/12/03 12:08:37;;;;;;;31.40;21.70;;;;;;;;;;5074571;28;20548;-44
2022/12/03 12:11:03;;;;;;;34.93;23.03;;;;;;;;;;5074328;28;20445;-44
2022/12/03 12:13:53;;;;;;;33.43;22.63;;;;;;;;;;5073965;28;20438;-44
2022/12/03 12:16:37;;;;;;;34.63;22.43;;;;;;;;;;5074119;28;20437;-44
2022/12/03 12:19:18;;;;;;;34.40;22.17;;;;;;;;;;5074230;28;20446;-44
2022/12/03 12:21:48;;;;;;;32.83;23.50;;;;;;;;;;5073681;28;20863;-44
2022/12/03 12:24:31;;;;;;;36.67;22.87;;;;;;;;;;5073763;28;20483;-44
2022/12/03 12:26:58;;;;;;;34.43;23.83;;;;;;;;;;5073940;28;20485;-44
2022/12/03 12:29:24;;;;;;;33.30;23.43;;;;;;;;;;5073581;28;20425;-44
2022/12/03 12:31:56;;;;;;;37.07;22.37;;;;;;;;;;5073861;28;20458;-44
2022/12/03 12:34:22;;;;;;;35.27;24.10;;;;;;;;;;5073690;28;20809;-44
2022/12/03 12:36:48;;;;;;;33.83;22.83;;;;;;;;;;5073672;28;20434;-44
2022/12/03 12:39:15;;;;;;;33.37;22.47;;;;;;;;;;5073496;28;20422;-44
2022/12/03 12:41:41;;;;;;;35.40;23.17;;;;;;;;;;5073587;28;20462;-43
2022/12/03 12:44:09;;;;;;;33.67;21.93;;;;;;;;;;5073363;28;20688;-43
2022/12/03 12:46:36;;;;;;;32.80;21.80;;;;;;;;;;5073195;28;20485;-44
2022/12/03 12:49:08;;;;;;;33.10;22.60;;;;;;;;;;5073241;28;21046;-43
2022/12/03 12:51:37;;;;;;;32.63;23.07;;;;;;;;;;5073063;28;20477;-44
2022/12/03 12:54:05;;;;;;;33.03;22.70;;;;;;;;;;5073081;28;20916;-43
2022/12/03 12:56:31;;;;;;;36.97;23.47;;;;;;;;;;5072375;28;20448;-43
2022/12/03 12:59:00;;;;;;;36.23;23.40;;;;;;;;;;5072741;28;20433;-43
2022/12/03 13:01:27;;;;;;;33.53;22.30;;;;;;;;;;5072722;28;20810;-44
2022/12/03 13:03:54;;;;;;;34.37;22.70;;;;;;;;;;5072867;28;20958;-44
2022/12/03 13:06:23;;;;;;;34.60;23.70;;;;;;;;;;5073208;28;20666;-43
2022/12/03 13:08:49;;;;;;;34.97;23.50;;;;;;;;;;5072886;28;20450;-43
2022/12/03 13:11:26;;;;;;;32.50;23.53;;;;;;;;;;5072852;28;20434;-43
2022/12/03 13:13:52;;;;;;;34.33;23.47;;;;;;;;;;5072771;28;20429;-43
2022/12/03 13:16:19;;;;;;;33.70;21.57;;;;;;;;;;5072751;28;20445;-43
2022/12/03 13:18:46;;;;;;;35.37;24.00;;;;;;;;;;5072817;28;20445;-43
2022/12/03 13:21:20;;;;;;;33.83;23.93;;;;;;;;;;5072550;28;20445;-43
2022/12/03 13:23:48;;;;;;;38.77;24.70;;;;;;;;;;5072693;28;20433;-44
2022/12/03 13:26:19;;;;;;;38.90;23.67;;;;;;;;;;5072536;28;20505;-42
2022/12/03 13:28:45;;;;;;;38.40;24.17;;;;;;;;;;5072645;28;20525;-43
2022/12/03 13:31:20;;;;;;;36.27;24.03;;;;;;;;;;5072339;28;20874;-43
2022/12/03 13:33:47;;;;;;;33.13;23.13;;;;;;;;;;5072303;28;20444;-43
2022/12/03 13:36:14;;;;;;;34.10;22.20;;;;;;;;;;5072155;28;20513;-44
2022/12/03 13:38:40;;;;;;;35.10;23.37;;;;;;;;;;5072335;28;20441;-43
2022/12/03 13:42:37;;;;;;;39.53;24.83;;;;;;;;;;5072146;28;20444;-43
2022/12/03 13:43:59;;;;;;;35.10;22.87;;;;;;;;;;5072172;28;20430;-43
2022/12/03 13:46:25;;;;;;;39.70;24.13;;;;;;;;;;5072026;28;20521;-43
2022/12/03 13:48:51;;;;;;;36.27;24.27;;;;;;;;;;5072330;28;20486;-43
2022/12/03 13:51:22;;;;;;;38.03;24.27;;;;;;;;;;5071800;28;20968;-43
2022/12/03 13:53:48;;;;;;;34.23;23.27;;;;;;;;;;5072397;28;20451;-43
2022/12/03 13:56:21;;;;;;;35.80;24.13;;;;;;;;;;5072046;28;20994;-43
2022/12/03 13:58:47;;;;;;;37.80;23.27;;;;;;;;;;5072403;28;20434;-43
2022/12/03 14:01:13;;;;;;;36.20;24.20;;;;;;;;;;5071851;28;20433;-43
2022/12/03 14:03:39;;;;;;;34.10;23.33;;;;;;;;;;5071908;28;20924;-44
2022/12/03 14:06:06;;;;;;;35.93;24.43;;;;;;;;;;5071949;28;20481;-43
2022/12/03 14:08:32;;;;;;;36.27;24.47;;;;;;;;;;5071203;28;20446;-43
2022/12/03 14:10:58;;;;;;;36.60;23.60;;;;;;;;;;5072164;28;20438;-43
2022/12/03 14:13:25;;;;;;;34.90;22.67;;;;;;;;;;5071581;28;20837;-44
2022/12/03 14:15:51;;;;;;;34.20;23.63;;;;;;;;;;5071867;28;20442;-43
2022/12/03 14:18:17;;;;;;;38.43;24.43;;;;;;;;;;5071758;28;20449;-45
2022/12/03 14:20:43;;;;;;;34.33;23.67;;;;;;;;;;5071823;28;20449;-44
2022/12/03 14:23:09;;;;;;;35.10;23.40;;;;;;;;;;5071739;28;20479;-44
2022/12/03 14:25:35;;;;;;;35.97;24.40;;;;;;;;;;5071601;28;20535;-44
2022/12/03 14:28:01;;;;;;;34.40;23.30;;;;;;;;;;5071630;28;20436;-43
2022/12/03 14:30:29;;;;;;;37.20;24.13;;;;;;;;;;5071482;28;20445;-44
2022/12/03 14:32:55;;;;;;;34.93;22.80;;;;;;;;;;5071509;28;20499;-43
2022/12/03 14:35:21;;;;;;;33.57;22.80;;;;;;;;;;5071402;28;20445;-43
2022/12/03 14:37:47;;;;;;;34.50;24.40;;;;;;;;;;5071726;28;20853;-43